sensor_id;sensor_type;location;lat;lon;timestamp;P1;durP1;ratioP1;P2;durP2;ratioP2
17141;SDS011;32805;53.556;9.944;2023-04-25T00:02:20;6.45;;;3.88;;
17141;SDS011;32805;53.556;9.944;2023-04-25T00:04:48;7.30;;;4.60;;
17141;SDS011;32805;53.556;9.944;2023-04-25T00:07:17;10.57;;;4.15;;
17141;SDS011;32805;53.556;9.944;2023-04-25T00:09:45;8.05;;;4.60;;
17141;SDS011;32805;53.556;9.944;2023-04-25T00:12:13;9.70;;;4.40;;
17141;SDS011;32805;53.556;9.944;2023-04-25T00:14:41;13.13;;;4.20;;
17141;SDS011;32805;53.556;9.944;2023-04-25T00:17:10;10.98;;;4.82;;
17141;SDS011;32805;53.556;9.944;2023-04-25T00:19:37;14.18;;;4.53;;
17141;SDS011;32805;53.556;9.944;2023-04-25T00:22:05;15.70;;;4.35;;
17141;SDS011;32805;53.556;9.944;2023-04-25T00:24:34;13.32;;;4.68;;
17141;SDS011;32805;53.556;9.944;2023-04-25T00:27:02;12.88;;;4.28;;
17141;SDS011;32805;53.556;9.944;2023-04-25T00:29:30;18.77;;;4.13;;
17141;SDS011;32805;53.556;9.944;2023-04-25T00:31:57;20.50;;;5.90;;
17141;SDS011;32805;53.556;9.944;2023-04-25T00:34:25;9.65;;;4.45;;
17141;SDS011;32805;53.556;9.944;2023-04-25T00:36:53;13.85;;;4.47;;
17141;SDS011;32805;53.556;9.944;2023-04-25T00:39:21;13.20;;;4.13;;
17141;SDS011;32805;53.556;9.944;2023-04-25T00:41:50;17.63;;;4.22;;
17141;SDS011;32805;53.556;9.944;2023-04-25T00:44:19;12.77;;;3.92;;
17141;SDS011;32805;53.556;9.944;2023-04-25T00:46:47;12.45;;;3.90;;
17141;SDS011;32805;53.556;9.944;2023-04-25T00:49:15;12.30;;;3.70;;
17141;SDS011;32805;53.556;9.944;2023-04-25T00:51:43;10.70;;;3.60;;
17141;SDS011;32805;53.556;9.944;2023-04-25T00:54:11;18.05;;;3.80;;
17141;SDS011;32805;53.556;9.944;2023-04-25T00:56:40;8.43;;;3.40;;
17141;SDS011;32805;53.556;9.944;2023-04-25T00:59:09;10.48;;;3.60;;
17141;SDS011;32805;53.556;9.944;2023-04-25T01:01:38;10.57;;;3.88;;
17141;SDS011;32805;53.556;9.944;2023-04-25T01:04:06;13.95;;;4.10;;
17141;SDS011;32805;53.556;9.944;2023-04-25T01:06:34;16.88;;;3.63;;
17141;SDS011;32805;53.556;9.944;2023-04-25T01:09:02;14.23;;;4.38;;
17141;SDS011;32805;53.556;9.944;2023-04-25T01:11:31;15.95;;;4.18;;
17141;SDS011;32805;53.556;9.944;2023-04-25T01:13:59;15.82;;;3.83;;
17141;SDS011;32805;53.556;9.944;2023-04-25T01:16:29;10.27;;;3.60;;
17141;SDS011;32805;53.556;9.944;2023-04-25T01:18:57;23.17;;;4.25;;
17141;SDS011;32805;53.556;9.944;2023-04-25T01:21:27;15.23;;;3.70;;
17141;SDS011;32805;53.556;9.944;2023-04-25T01:23:56;16.75;;;3.88;;
17141;SDS011;32805;53.556;9.944;2023-04-25T01:26:24;14.07;;;3.53;;
17141;SDS011;32805;53.556;9.944;2023-04-25T01:28:52;15.07;;;4.35;;
17141;SDS011;32805;53.556;9.944;2023-04-25T01:31:21;20.42;;;4.68;;
17141;SDS011;32805;53.556;9.944;2023-04-25T01:33:49;15.20;;;3.58;;
17141;SDS011;32805;53.556;9.944;2023-04-25T01:36:17;17.08;;;3.85;;
17141;SDS011;32805;53.556;9.944;2023-04-25T01:38:46;16.15;;;4.07;;
17141;SDS011;32805;53.556;9.944;2023-04-25T01:41:14;19.35;;;4.53;;
17141;SDS011;32805;53.556;9.944;2023-04-25T01:43:43;14.60;;;3.85;;
17141;SDS011;32805;53.556;9.944;2023-04-25T01:46:12;15.88;;;4.07;;
17141;SDS011;32805;53.556;9.944;2023-04-25T01:48:39;15.63;;;3.72;;
17141;SDS011;32805;53.556;9.944;2023-04-25T01:51:07;14.05;;;3.72;;
17141;SDS011;32805;53.556;9.944;2023-04-25T01:53:35;20.92;;;4.00;;
17141;SDS011;32805;53.556;9.944;2023-04-25T01:56:05;19.00;;;4.00;;
17141;SDS011;32805;53.556;9.944;2023-04-25T01:58:34;20.25;;;4.78;;
17141;SDS011;32805;53.556;9.944;2023-04-25T02:01:20;18.20;;;3.80;;
17141;SDS011;32805;53.556;9.944;2023-04-25T02:04:03;14.68;;;4.13;;
17141;SDS011;32805;53.556;9.944;2023-04-25T02:06:35;18.52;;;4.28;;
17141;SDS011;32805;53.556;9.944;2023-04-25T02:09:02;11.90;;;4.20;;
17141;SDS011;32805;53.556;9.944;2023-04-25T02:11:32;15.07;;;3.90;;
17141;SDS011;32805;53.556;9.944;2023-04-25T02:14:20;16.92;;;4.80;;
17141;SDS011;32805;53.556;9.944;2023-04-25T02:16:58;17.60;;;3.70;;
17141;SDS011;32805;53.556;9.944;2023-04-25T02:19:26;17.30;;;3.80;;
17141;SDS011;32805;53.556;9.944;2023-04-25T02:21:54;14.55;;;4.35;;
17141;SDS011;32805;53.556;9.944;2023-04-25T02:24:23;12.65;;;3.83;;
17141;SDS011;32805;53.556;9.944;2023-04-25T02:26:52;10.73;;;3.45;;
17141;SDS011;32805;53.556;9.944;2023-04-25T02:29:21;18.80;;;4.20;;
17141;SDS011;32805;53.556;9.944;2023-04-25T02:31:49;17.08;;;3.92;;
17141;SDS011;32805;53.556;9.944;2023-04-25T02:34:17;12.70;;;4.22;;
17141;SDS011;32805;53.556;9.944;2023-04-25T02:36:44;17.98;;;3.33;;
17141;SDS011;32805;53.556;9.944;2023-04-25T02:39:12;19.05;;;3.83;;
17141;SDS011;32805;53.556;9.944;2023-04-25T02:41:39;15.10;;;3.70;;
17141;SDS011;32805;53.556;9.944;2023-04-25T02:44:08;12.27;;;3.53;;
17141;SDS011;32805;53.556;9.944;2023-04-25T02:46:36;11.88;;;3.78;;
17141;SDS011;32805;53.556;9.944;2023-04-25T02:49:05;14.07;;;4.18;;
17141;SDS011;32805;53.556;9.944;2023-04-25T02:51:33;17.17;;;3.72;;
17141;SDS011;32805;53.556;9.944;2023-04-25T02:54:01;15.70;;;4.05;;
17141;SDS011;32805;53.556;9.944;2023-04-25T02:56:33;16.13;;;4.00;;
17141;SDS011;32805;53.556;9.944;2023-04-25T02:59:01;16.77;;;4.35;;
17141;SDS011;32805;53.556;9.944;2023-04-25T03:01:31;24.45;;;4.88;;
17141;SDS011;32805;53.556;9.944;2023-04-25T03:03:58;19.67;;;3.85;;
17141;SDS011;32805;53.556;9.944;2023-04-25T03:06:26;11.85;;;3.25;;
17141;SDS011;32805;53.556;9.944;2023-04-25T03:08:53;18.55;;;5.05;;
17141;SDS011;32805;53.556;9.944;2023-04-25T03:11:21;13.85;;;3.70;;
17141;SDS011;32805;53.556;9.944;2023-04-25T03:13:49;13.50;;;3.40;;
17141;SDS011;32805;53.556;9.944;2023-04-25T03:16:18;10.25;;;3.20;;
17141;SDS011;32805;53.556;9.944;2023-04-25T03:18:47;15.40;;;4.03;;
17141;SDS011;32805;53.556;9.944;2023-04-25T03:21:17;11.38;;;3.22;;
17141;SDS011;32805;53.556;9.944;2023-04-25T03:23:44;23.45;;;4.55;;
17141;SDS011;32805;53.556;9.944;2023-04-25T03:26:12;10.90;;;3.40;;
17141;SDS011;32805;53.556;9.944;2023-04-25T03:28:41;17.70;;;3.70;;
17141;SDS011;32805;53.556;9.944;2023-04-25T03:31:09;17.60;;;3.42;;
17141;SDS011;32805;53.556;9.944;2023-04-25T03:33:36;13.15;;;3.10;;
17141;SDS011;32805;53.556;9.944;2023-04-25T03:36:06;11.27;;;2.83;;
17141;SDS011;32805;53.556;9.944;2023-04-25T03:38:34;19.10;;;4.30;;
17141;SDS011;32805;53.556;9.944;2023-04-25T03:41:02;18.33;;;3.45;;
17141;SDS011;32805;53.556;9.944;2023-04-25T03:43:40;15.93;;;3.65;;
17141;SDS011;32805;53.556;9.944;2023-04-25T03:46:11;13.15;;;3.47;;
17141;SDS011;32805;53.556;9.944;2023-04-25T03:48:40;10.52;;;2.65;;
17141;SDS011;32805;53.556;9.944;2023-04-25T03:51:11;15.73;;;3.50;;
17141;SDS011;32805;53.556;9.944;2023-04-25T03:53:42;14.98;;;2.95;;
17141;SDS011;32805;53.556;9.944;2023-04-25T03:56:18;19.23;;;3.50;;
17141;SDS011;32805;53.556;9.944;2023-04-25T03:58:52;15.00;;;2.95;;
17141;SDS011;32805;53.556;9.944;2023-04-25T04:01:22;15.98;;;2.85;;
17141;SDS011;32805;53.556;9.944;2023-04-25T04:03:49;13.77;;;2.55;;
17141;SDS011;32805;53.556;9.944;2023-04-25T04:06:19;7.47;;;2.13;;
17141;SDS011;32805;53.556;9.944;2023-04-25T04:08:51;9.38;;;2.88;;
17141;SDS011;32805;53.556;9.944;2023-04-25T04:11:19;9.02;;;2.60;;
17141;SDS011;32805;53.556;9.944;2023-04-25T04:13:47;8.13;;;2.28;;
17141;SDS011;32805;53.556;9.944;2023-04-25T04:16:15;12.30;;;3.35;;
17141;SDS011;32805;53.556;9.944;2023-04-25T04:18:43;4.95;;;2.60;;
17141;SDS011;32805;53.556;9.944;2023-04-25T04:21:10;13.35;;;3.28;;
17141;SDS011;32805;53.556;9.944;2023-04-25T04:23:41;13.32;;;3.13;;
17141;SDS011;32805;53.556;9.944;2023-04-25T04:26:09;10.95;;;2.72;;
17141;SDS011;32805;53.556;9.944;2023-04-25T04:28:49;12.50;;;3.40;;
17141;SDS011;32805;53.556;9.944;2023-04-25T04:31:44;9.60;;;2.70;;
17141;SDS011;32805;53.556;9.944;2023-04-25T04:34:12;14.00;;;3.00;;
17141;SDS011;32805;53.556;9.944;2023-04-25T04:36:40;8.07;;;2.67;;
17141;SDS011;32805;53.556;9.944;2023-04-25T04:39:09;9.45;;;2.65;;
17141;SDS011;32805;53.556;9.944;2023-04-25T04:41:45;13.77;;;2.85;;
17141;SDS011;32805;53.556;9.944;2023-04-25T04:44:28;13.38;;;2.90;;
17141;SDS011;32805;53.556;9.944;2023-04-25T04:47:12;10.50;;;2.75;;
17141;SDS011;32805;53.556;9.944;2023-04-25T04:49:55;10.27;;;3.15;;
17141;SDS011;32805;53.556;9.944;2023-04-25T04:52:49;17.42;;;2.90;;
17141;SDS011;32805;53.556;9.944;2023-04-25T04:55:37;8.50;;;2.97;;
17141;SDS011;32805;53.556;9.944;2023-04-25T04:58:14;13.40;;;3.08;;
17141;SDS011;32805;53.556;9.944;2023-04-25T05:00:55;15.52;;;3.25;;
17141;SDS011;32805;53.556;9.944;2023-04-25T05:03:59;8.70;;;3.17;;
17141;SDS011;32805;53.556;9.944;2023-04-25T05:06:51;7.22;;;2.58;;
17141;SDS011;32805;53.556;9.944;2023-04-25T05:09:38;14.15;;;2.90;;
17141;SDS011;32805;53.556;9.944;2023-04-25T05:12:38;8.75;;;2.72;;
17141;SDS011;32805;53.556;9.944;2023-04-25T05:15:14;11.13;;;3.33;;
17141;SDS011;32805;53.556;9.944;2023-04-25T05:17:57;7.03;;;2.95;;
17141;SDS011;32805;53.556;9.944;2023-04-25T05:20:44;15.15;;;2.80;;
17141;SDS011;32805;53.556;9.944;2023-04-25T05:23:25;13.13;;;2.85;;
17141;SDS011;32805;53.556;9.944;2023-04-25T05:26:01;8.80;;;2.25;;
17141;SDS011;32805;53.556;9.944;2023-04-25T05:28:36;12.70;;;2.63;;
17141;SDS011;32805;53.556;9.944;2023-04-25T05:31:22;10.32;;;2.47;;
17141;SDS011;32805;53.556;9.944;2023-04-25T05:33:56;14.52;;;3.22;;
17141;SDS011;32805;53.556;9.944;2023-04-25T05:36:32;12.50;;;2.35;;
17141;SDS011;32805;53.556;9.944;2023-04-25T05:38:59;11.52;;;2.50;;
17141;SDS011;32805;53.556;9.944;2023-04-25T05:41:50;6.13;;;2.90;;
17141;SDS011;32805;53.556;9.944;2023-04-25T05:44:44;8.38;;;2.13;;
17141;SDS011;32805;53.556;9.944;2023-04-25T05:47:33;11.88;;;3.20;;
17141;SDS011;32805;53.556;9.944;2023-04-25T05:50:06;11.70;;;2.65;;
17141;SDS011;32805;53.556;9.944;2023-04-25T05:52:56;11.45;;;2.33;;
17141;SDS011;32805;53.556;9.944;2023-04-25T05:55:44;10.48;;;2.80;;
17141;SDS011;32805;53.556;9.944;2023-04-25T05:58:20;10.30;;;2.80;;
17141;SDS011;32805;53.556;9.944;2023-04-25T06:00:49;12.70;;;3.22;;
17141;SDS011;32805;53.556;9.944;2023-04-25T06:03:17;8.95;;;2.40;;
17141;SDS011;32805;53.556;9.944;2023-04-25T06:05:50;13.45;;;2.70;;
17141;SDS011;32805;53.556;9.944;2023-04-25T06:08:20;5.82;;;2.42;;
17141;SDS011;32805;53.556;9.944;2023-04-25T06:10:48;10.27;;;2.55;;
17141;SDS011;32805;53.556;9.944;2023-04-25T06:13:16;6.22;;;2.03;;
17141;SDS011;32805;53.556;9.944;2023-04-25T06:15:43;10.32;;;2.50;;
17141;SDS011;32805;53.556;9.944;2023-04-25T06:18:12;10.20;;;4.00;;
17141;SDS011;32805;53.556;9.944;2023-04-25T06:20:40;11.50;;;3.35;;
17141;SDS011;32805;53.556;9.944;2023-04-25T06:23:08;13.15;;;2.60;;
17141;SDS011;32805;53.556;9.944;2023-04-25T06:25:50;13.98;;;2.10;;
17141;SDS011;32805;53.556;9.944;2023-04-25T06:28:18;12.90;;;2.60;;
17141;SDS011;32805;53.556;9.944;2023-04-25T06:30:48;14.63;;;2.97;;
17141;SDS011;32805;53.556;9.944;2023-04-25T06:33:19;11.52;;;2.47;;
17141;SDS011;32805;53.556;9.944;2023-04-25T06:35:48;11.07;;;3.33;;
17141;SDS011;32805;53.556;9.944;2023-04-25T06:38:20;9.63;;;2.20;;
17141;SDS011;32805;53.556;9.944;2023-04-25T06:40:50;12.18;;;2.22;;
17141;SDS011;32805;53.556;9.944;2023-04-25T06:43:18;9.68;;;2.30;;
17141;SDS011;32805;53.556;9.944;2023-04-25T06:46:07;11.25;;;2.00;;
17141;SDS011;32805;53.556;9.944;2023-04-25T06:48:42;10.48;;;3.17;;
17141;SDS011;32805;53.556;9.944;2023-04-25T06:51:10;8.85;;;2.08;;
17141;SDS011;32805;53.556;9.944;2023-04-25T06:53:39;7.00;;;2.60;;
17141;SDS011;32805;53.556;9.944;2023-04-25T06:56:13;9.75;;;2.40;;
17141;SDS011;32805;53.556;9.944;2023-04-25T06:58:52;9.50;;;2.67;;
17141;SDS011;32805;53.556;9.944;2023-04-25T07:01:26;9.27;;;2.10;;
17141;SDS011;32805;53.556;9.944;2023-04-25T07:03:56;6.00;;;2.15;;
17141;SDS011;32805;53.556;9.944;2023-04-25T07:06:24;11.07;;;2.13;;
17141;SDS011;32805;53.556;9.944;2023-04-25T07:08:53;9.10;;;1.92;;
17141;SDS011;32805;53.556;9.944;2023-04-25T07:11:22;13.43;;;1.92;;
17141;SDS011;32805;53.556;9.944;2023-04-25T07:13:50;8.90;;;2.45;;
17141;SDS011;32805;53.556;9.944;2023-04-25T07:16:18;9.90;;;2.53;;
17141;SDS011;32805;53.556;9.944;2023-04-25T07:18:46;9.15;;;2.15;;
17141;SDS011;32805;53.556;9.944;2023-04-25T07:21:15;7.97;;;2.03;;
17141;SDS011;32805;53.556;9.944;2023-04-25T07:23:44;7.80;;;2.25;;
17141;SDS011;32805;53.556;9.944;2023-04-25T07:26:16;9.90;;;2.33;;
17141;SDS011;32805;53.556;9.944;2023-04-25T07:29:04;14.05;;;2.20;;
17141;SDS011;32805;53.556;9.944;2023-04-25T07:31:31;9.75;;;1.85;;
17141;SDS011;32805;53.556;9.944;2023-04-25T07:33:59;8.52;;;2.00;;
17141;SDS011;32805;53.556;9.944;2023-04-25T07:36:29;5.82;;;2.00;;
17141;SDS011;32805;53.556;9.944;2023-04-25T07:38:57;8.63;;;1.80;;
17141;SDS011;32805;53.556;9.944;2023-04-25T07:41:25;10.18;;;2.55;;
17141;SDS011;32805;53.556;9.944;2023-04-25T07:43:52;5.80;;;1.55;;
17141;SDS011;32805;53.556;9.944;2023-04-25T07:46:20;10.02;;;3.05;;
17141;SDS011;32805;53.556;9.944;2023-04-25T07:48:48;6.70;;;1.98;;
17141;SDS011;32805;53.556;9.944;2023-04-25T07:51:15;10.70;;;1.88;;
17141;SDS011;32805;53.556;9.944;2023-04-25T07:53:47;6.00;;;1.50;;
17141;SDS011;32805;53.556;9.944;2023-04-25T07:56:16;13.77;;;2.03;;
17141;SDS011;32805;53.556;9.944;2023-04-25T07:58:46;7.85;;;1.85;;
17141;SDS011;32805;53.556;9.944;2023-04-25T08:01:16;8.90;;;1.95;;
17141;SDS011;32805;53.556;9.944;2023-04-25T08:03:52;6.22;;;1.50;;
17141;SDS011;32805;53.556;9.944;2023-04-25T08:06:26;8.82;;;1.70;;
17141;SDS011;32805;53.556;9.944;2023-04-25T08:09:09;6.13;;;1.73;;
17141;SDS011;32805;53.556;9.944;2023-04-25T08:11:40;7.43;;;1.73;;
17141;SDS011;32805;53.556;9.944;2023-04-25T08:14:10;5.45;;;1.38;;
17141;SDS011;32805;53.556;9.944;2023-04-25T08:16:39;4.65;;;1.55;;
17141;SDS011;32805;53.556;9.944;2023-04-25T08:19:07;7.97;;;1.58;;
17141;SDS011;32805;53.556;9.944;2023-04-25T08:21:34;6.15;;;1.38;;
17141;SDS011;32805;53.556;9.944;2023-04-25T08:24:05;12.63;;;2.03;;
17141;SDS011;32805;53.556;9.944;2023-04-25T08:26:37;5.18;;;1.50;;
17141;SDS011;32805;53.556;9.944;2023-04-25T08:29:07;10.55;;;1.80;;
17141;SDS011;32805;53.556;9.944;2023-04-25T08:31:38;5.65;;;2.15;;
17141;SDS011;32805;53.556;9.944;2023-04-25T08:34:07;4.40;;;1.60;;
17141;SDS011;32805;53.556;9.944;2023-04-25T08:36:42;9.73;;;1.70;;
17141;SDS011;32805;53.556;9.944;2023-04-25T08:39:36;5.38;;;1.80;;
17141;SDS011;32805;53.556;9.944;2023-04-25T08:42:28;9.68;;;1.85;;
17141;SDS011;32805;53.556;9.944;2023-04-25T08:45:02;5.13;;;1.75;;
17141;SDS011;32805;53.556;9.944;2023-04-25T08:47:35;6.25;;;1.88;;
17141;SDS011;32805;53.556;9.944;2023-04-25T08:50:05;6.05;;;1.85;;
17141;SDS011;32805;53.556;9.944;2023-04-25T08:52:36;9.10;;;2.20;;
17141;SDS011;32805;53.556;9.944;2023-04-25T08:55:05;7.38;;;2.58;;
17141;SDS011;32805;53.556;9.944;2023-04-25T08:57:38;10.82;;;1.90;;
17141;SDS011;32805;53.556;9.944;2023-04-25T09:00:09;5.38;;;1.50;;
17141;SDS011;32805;53.556;9.944;2023-04-25T09:02:40;6.05;;;1.60;;
17141;SDS011;32805;53.556;9.944;2023-04-25T09:05:12;4.63;;;1.67;;
17141;SDS011;32805;53.556;9.944;2023-04-25T09:07:40;4.18;;;1.42;;
17141;SDS011;32805;53.556;9.944;2023-04-25T09:10:08;3.35;;;1.33;;
17141;SDS011;32805;53.556;9.944;2023-04-25T09:12:39;2.58;;;1.10;;
17141;SDS011;32805;53.556;9.944;2023-04-25T09:15:08;6.88;;;1.92;;
17141;SDS011;32805;53.556;9.944;2023-04-25T09:17:54;7.38;;;1.30;;
17141;SDS011;32805;53.556;9.944;2023-04-25T09:20:24;3.28;;;1.10;;
17141;SDS011;32805;53.556;9.944;2023-04-25T09:23:00;6.00;;;1.65;;
17141;SDS011;32805;53.556;9.944;2023-04-25T09:25:33;6.72;;;1.10;;
17141;SDS011;32805;53.556;9.944;2023-04-25T09:28:05;3.30;;;0.95;;
17141;SDS011;32805;53.556;9.944;2023-04-25T09:30:33;6.13;;;1.27;;
17141;SDS011;32805;53.556;9.944;2023-04-25T09:33:18;12.07;;;2.35;;
17141;SDS011;32805;53.556;9.944;2023-04-25T09:35:48;11.90;;;1.80;;
17141;SDS011;32805;53.556;9.944;2023-04-25T09:38:28;6.20;;;1.40;;
17141;SDS011;32805;53.556;9.944;2023-04-25T09:41:02;8.77;;;1.80;;
17141;SDS011;32805;53.556;9.944;2023-04-25T09:43:40;5.53;;;1.50;;
17141;SDS011;32805;53.556;9.944;2023-04-25T09:46:13;7.95;;;2.00;;
17141;SDS011;32805;53.556;9.944;2023-04-25T09:48:47;9.40;;;1.60;;
17141;SDS011;32805;53.556;9.944;2023-04-25T09:51:24;6.00;;;1.45;;
17141;SDS011;32805;53.556;9.944;2023-04-25T09:53:54;5.38;;;1.30;;
17141;SDS011;32805;53.556;9.944;2023-04-25T09:56:42;3.15;;;1.42;;
17141;SDS011;32805;53.556;9.944;2023-04-25T09:59:12;6.43;;;1.48;;
17141;SDS011;32805;53.556;9.944;2023-04-25T10:01:41;6.88;;;1.70;;
17141;SDS011;32805;53.556;9.944;2023-04-25T10:04:19;10.63;;;1.52;;
17141;SDS011;32805;53.556;9.944;2023-04-25T10:07:15;6.03;;;1.55;;
17141;SDS011;32805;53.556;9.944;2023-04-25T10:09:47;7.10;;;1.77;;
17141;SDS011;32805;53.556;9.944;2023-04-25T10:12:16;6.90;;;1.30;;
17141;SDS011;32805;53.556;9.944;2023-04-25T10:14:46;5.70;;;1.40;;
17141;SDS011;32805;53.556;9.944;2023-04-25T10:17:14;4.40;;;1.40;;
17141;SDS011;32805;53.556;9.944;2023-04-25T10:19:42;5.32;;;1.30;;
17141;SDS011;32805;53.556;9.944;2023-04-25T10:22:11;5.57;;;1.33;;
17141;SDS011;32805;53.556;9.944;2023-04-25T10:24:42;4.18;;;0.90;;
17141;SDS011;32805;53.556;9.944;2023-04-25T10:27:12;6.13;;;1.13;;
17141;SDS011;32805;53.556;9.944;2023-04-25T10:29:40;8.57;;;1.25;;
17141;SDS011;32805;53.556;9.944;2023-04-25T10:32:10;4.50;;;1.30;;
17141;SDS011;32805;53.556;9.944;2023-04-25T10:34:39;4.43;;;1.33;;
17141;SDS011;32805;53.556;9.944;2023-04-25T10:37:08;7.72;;;1.23;;
17141;SDS011;32805;53.556;9.944;2023-04-25T10:39:38;3.55;;;1.30;;
17141;SDS011;32805;53.556;9.944;2023-04-25T10:42:07;4.10;;;1.30;;
17141;SDS011;32805;53.556;9.944;2023-04-25T10:44:36;6.03;;;1.70;;
17141;SDS011;32805;53.556;9.944;2023-04-25T10:47:06;6.40;;;1.80;;
17141;SDS011;32805;53.556;9.944;2023-04-25T10:49:37;8.85;;;1.55;;
17141;SDS011;32805;53.556;9.944;2023-04-25T10:52:12;5.97;;;1.70;;
17141;SDS011;32805;53.556;9.944;2023-04-25T10:54:52;5.68;;;1.30;;
17141;SDS011;32805;53.556;9.944;2023-04-25T10:57:31;6.55;;;1.45;;
17141;SDS011;32805;53.556;9.944;2023-04-25T11:00:04;5.05;;;1.50;;
17141;SDS011;32805;53.556;9.944;2023-04-25T11:02:45;8.43;;;1.80;;
17141;SDS011;32805;53.556;9.944;2023-04-25T11:05:22;7.75;;;2.08;;
17141;SDS011;32805;53.556;9.944;2023-04-25T11:07:55;5.68;;;1.25;;
17141;SDS011;32805;53.556;9.944;2023-04-25T11:10:33;3.95;;;1.55;;
17141;SDS011;32805;53.556;9.944;2023-04-25T11:13:02;8.02;;;1.63;;
17141;SDS011;32805;53.556;9.944;2023-04-25T11:15:30;9.38;;;1.73;;
17141;SDS011;32805;53.556;9.944;2023-04-25T11:17:58;4.68;;;1.30;;
17141;SDS011;32805;53.556;9.944;2023-04-25T11:20:27;6.47;;;1.33;;
17141;SDS011;32805;53.556;9.944;2023-04-25T11:22:57;6.40;;;1.73;;
17141;SDS011;32805;53.556;9.944;2023-04-25T11:25:25;5.55;;;1.48;;
17141;SDS011;32805;53.556;9.944;2023-04-25T11:27:53;4.55;;;1.10;;
17141;SDS011;32805;53.556;9.944;2023-04-25T11:30:22;4.15;;;1.58;;
17141;SDS011;32805;53.556;9.944;2023-04-25T11:32:51;4.10;;;1.20;;
17141;SDS011;32805;53.556;9.944;2023-04-25T11:35:20;4.22;;;1.33;;
17141;SDS011;32805;53.556;9.944;2023-04-25T11:37:50;5.93;;;1.10;;
17141;SDS011;32805;53.556;9.944;2023-04-25T11:40:18;3.90;;;0.90;;
17141;SDS011;32805;53.556;9.944;2023-04-25T11:42:46;1.40;;;0.90;;
17141;SDS011;32805;53.556;9.944;2023-04-25T11:45:14;3.65;;;1.13;;
17141;SDS011;32805;53.556;9.944;2023-04-25T11:47:42;3.45;;;1.10;;
17141;SDS011;32805;53.556;9.944;2023-04-25T11:50:10;4.05;;;2.22;;
17141;SDS011;32805;53.556;9.944;2023-04-25T11:52:38;3.33;;;1.20;;
17141;SDS011;32805;53.556;9.944;2023-04-25T11:55:09;4.65;;;1.30;;
17141;SDS011;32805;53.556;9.944;2023-04-25T11:57:40;4.60;;;1.08;;
17141;SDS011;32805;53.556;9.944;2023-04-25T12:00:10;5.32;;;1.40;;
17141;SDS011;32805;53.556;9.944;2023-04-25T12:02:44;4.38;;;1.45;;
17141;SDS011;32805;53.556;9.944;2023-04-25T12:05:14;4.03;;;1.17;;
17141;SDS011;32805;53.556;9.944;2023-04-25T12:07:57;7.15;;;1.40;;
17141;SDS011;32805;53.556;9.944;2023-04-25T12:10:26;4.32;;;1.48;;
17141;SDS011;32805;53.556;9.944;2023-04-25T12:12:54;3.00;;;1.00;;
17141;SDS011;32805;53.556;9.944;2023-04-25T12:15:23;5.47;;;1.60;;
17141;SDS011;32805;53.556;9.944;2023-04-25T12:17:52;5.18;;;1.02;;
17141;SDS011;32805;53.556;9.944;2023-04-25T12:20:21;2.50;;;0.88;;
17141;SDS011;32805;53.556;9.944;2023-04-25T12:22:52;4.55;;;1.00;;
17141;SDS011;32805;53.556;9.944;2023-04-25T12:25:36;4.70;;;1.17;;
17141;SDS011;32805;53.556;9.944;2023-04-25T12:28:11;3.97;;;1.08;;
17141;SDS011;32805;53.556;9.944;2023-04-25T12:30:56;3.88;;;1.10;;
17141;SDS011;32805;53.556;9.944;2023-04-25T12:33:26;3.80;;;1.17;;
17141;SDS011;32805;53.556;9.944;2023-04-25T12:35:55;3.33;;;0.98;;
17141;SDS011;32805;53.556;9.944;2023-04-25T12:38:24;8.07;;;1.50;;
17141;SDS011;32805;53.556;9.944;2023-04-25T12:40:54;3.65;;;1.00;;
17141;SDS011;32805;53.556;9.944;2023-04-25T12:43:22;4.28;;;1.55;;
17141;SDS011;32805;53.556;9.944;2023-04-25T12:45:50;3.95;;;1.15;;
17141;SDS011;32805;53.556;9.944;2023-04-25T12:48:19;2.42;;;1.30;;
17141;SDS011;32805;53.556;9.944;2023-04-25T12:50:47;6.22;;;1.45;;
17141;SDS011;32805;53.556;9.944;2023-04-25T12:53:15;4.43;;;1.42;;
17141;SDS011;32805;53.556;9.944;2023-04-25T12:55:43;5.40;;;1.42;;
17141;SDS011;32805;53.556;9.944;2023-04-25T12:58:14;6.88;;;1.60;;
17141;SDS011;32805;53.556;9.944;2023-04-25T13:00:42;5.95;;;1.42;;
17141;SDS011;32805;53.556;9.944;2023-04-25T13:03:11;5.13;;;1.13;;
17141;SDS011;32805;53.556;9.944;2023-04-25T13:05:39;7.88;;;1.70;;
17141;SDS011;32805;53.556;9.944;2023-04-25T13:08:07;7.07;;;1.50;;
17141;SDS011;32805;53.556;9.944;2023-04-25T13:10:35;5.88;;;1.60;;
17141;SDS011;32805;53.556;9.944;2023-04-25T13:13:05;3.35;;;1.33;;
17141;SDS011;32805;53.556;9.944;2023-04-25T13:15:34;6.93;;;1.63;;
17141;SDS011;32805;53.556;9.944;2023-04-25T13:18:02;5.18;;;1.27;;
17141;SDS011;32805;53.556;9.944;2023-04-25T13:20:30;5.72;;;1.10;;
17141;SDS011;32805;53.556;9.944;2023-04-25T13:22:58;3.13;;;1.13;;
17141;SDS011;32805;53.556;9.944;2023-04-25T13:25:28;5.60;;;1.40;;
17141;SDS011;32805;53.556;9.944;2023-04-25T13:27:56;8.07;;;1.58;;
17141;SDS011;32805;53.556;9.944;2023-04-25T13:30:23;5.72;;;1.30;;
17141;SDS011;32805;53.556;9.944;2023-04-25T13:32:53;4.20;;;1.15;;
17141;SDS011;32805;53.556;9.944;2023-04-25T13:35:23;7.13;;;1.90;;
17141;SDS011;32805;53.556;9.944;2023-04-25T13:37:51;5.25;;;1.38;;
17141;SDS011;32805;53.556;9.944;2023-04-25T13:40:19;4.90;;;1.63;;
17141;SDS011;32805;53.556;9.944;2023-04-25T13:42:50;5.32;;;1.70;;
17141;SDS011;32805;53.556;9.944;2023-04-25T13:45:18;5.43;;;1.52;;
17141;SDS011;32805;53.556;9.944;2023-04-25T13:47:46;6.68;;;2.03;;
17141;SDS011;32805;53.556;9.944;2023-04-25T13:50:18;5.88;;;1.38;;
17141;SDS011;32805;53.556;9.944;2023-04-25T13:52:46;3.75;;;1.15;;
17141;SDS011;32805;53.556;9.944;2023-04-25T13:55:14;4.65;;;1.60;;
17141;SDS011;32805;53.556;9.944;2023-04-25T13:57:42;4.55;;;1.27;;
17141;SDS011;32805;53.556;9.944;2023-04-25T14:00:10;3.38;;;1.30;;
17141;SDS011;32805;53.556;9.944;2023-04-25T14:02:39;7.95;;;1.67;;
17141;SDS011;32805;53.556;9.944;2023-04-25T14:05:07;5.45;;;1.70;;
17141;SDS011;32805;53.556;9.944;2023-04-25T14:08:00;10.43;;;2.40;;
17141;SDS011;32805;53.556;9.944;2023-04-25T14:11:12;6.38;;;1.83;;
17141;SDS011;32805;53.556;9.944;2023-04-25T14:13:40;6.93;;;2.10;;
17141;SDS011;32805;53.556;9.944;2023-04-25T14:16:08;10.48;;;2.60;;
17141;SDS011;32805;53.556;9.944;2023-04-25T14:18:35;6.82;;;2.55;;
17141;SDS011;32805;53.556;9.944;2023-04-25T14:21:03;4.93;;;1.90;;
17141;SDS011;32805;53.556;9.944;2023-04-25T14:23:32;10.77;;;2.17;;
17141;SDS011;32805;53.556;9.944;2023-04-25T14:26:00;7.13;;;1.50;;
17141;SDS011;32805;53.556;9.944;2023-04-25T14:28:28;4.53;;;1.20;;
17141;SDS011;32805;53.556;9.944;2023-04-25T14:30:56;7.57;;;2.25;;
17141;SDS011;32805;53.556;9.944;2023-04-25T14:33:23;7.32;;;1.60;;
17141;SDS011;32805;53.556;9.944;2023-04-25T14:35:51;3.08;;;1.30;;
17141;SDS011;32805;53.556;9.944;2023-04-25T14:38:20;3.95;;;1.40;;
17141;SDS011;32805;53.556;9.944;2023-04-25T14:40:50;7.18;;;1.70;;
17141;SDS011;32805;53.556;9.944;2023-04-25T14:43:20;8.98;;;1.73;;
17141;SDS011;32805;53.556;9.944;2023-04-25T14:45:48;3.78;;;1.42;;
17141;SDS011;32805;53.556;9.944;2023-04-25T14:48:15;3.53;;;1.27;;
17141;SDS011;32805;53.556;9.944;2023-04-25T14:50:46;5.97;;;1.50;;
17141;SDS011;32805;53.556;9.944;2023-04-25T14:53:13;7.75;;;1.73;;
17141;SDS011;32805;53.556;9.944;2023-04-25T14:55:41;3.22;;;1.00;;
17141;SDS011;32805;53.556;9.944;2023-04-25T14:58:10;8.68;;;1.75;;
17141;SDS011;32805;53.556;9.944;2023-04-25T15:00:38;8.70;;;1.40;;
17141;SDS011;32805;53.556;9.944;2023-04-25T15:03:06;3.65;;;1.10;;
17141;SDS011;32805;53.556;9.944;2023-04-25T15:05:36;4.15;;;1.23;;
17141;SDS011;32805;53.556;9.944;2023-04-25T15:08:03;6.25;;;1.63;;
17141;SDS011;32805;53.556;9.944;2023-04-25T15:10:31;6.97;;;1.50;;